Kezdőlap
METAR-TAF:

METAR-TAF

Repülőterek :

Charles City, Iowa, Amerikai Egyesült Államok

földrajzi szélesség: 43-04N, földrajzi hosszúság: 092-37W, magasság: 343 m

Jelenlegi meteorológiai megfigyelések

A jelentés 9 perccel ezelõtt készült, 09:55 UTC
Északkeleti szél 4 kt
Hőmérséklet -9°C
Páratartalom 100%
Légköri nyomás 1015 hPa
Látótávolság: 6.4 km
Borult 500 lábon
Párásság

METAR: KCCY 130955Z AUTO 05004KT 4SM BR OVC005 M09/M09 A2997 RMK AO2

Idő: 04:04 (10:04 UTC)


TAF: hiányzik

Meteorológiai megfigyelések és előrejelzések több, mint 4000 repülőtéren (METAR és TAF jelentéseket).

A térképen piros és sárga pontok jelzik az elérhető meteorológiai állomásokat.

Mozgassa az egeret a pont fölött, hogy megjelenjen az állomás neve.

Azután kattintson az időjárási megfigyelések és előrejelzések megtekintéséhez.

A térkép megváltoztatása: kattintson a fekete keresztel jelölt zöld gombra ráközelítéshez, a vonallal jelölt zöld gombra távolításhoz, vagy a zöld nyilakra a szomszédos térképek eléréséhez.


METAR-TAF: